sensor_id;sensor_type;location;lat;lon;timestamp;temperature;humidity
56725;DHT22;42608;52.776;6.968;2022-08-21T00:01:56;18.50;99.90
56725;DHT22;42608;52.776;6.968;2022-08-21T00:04:22;18.50;99.90
56725;DHT22;42608;52.776;6.968;2022-08-21T00:06:51;18.40;99.90
56725;DHT22;42608;52.776;6.968;2022-08-21T00:09:18;18.30;99.90
56725;DHT22;42608;52.776;6.968;2022-08-21T00:11:44;18.20;99.90
56725;DHT22;42608;52.776;6.968;2022-08-21T00:14:10;18.10;99.90
56725;DHT22;42608;52.776;6.968;2022-08-21T00:16:36;18.10;99.90
56725;DHT22;42608;52.776;6.968;2022-08-21T00:19:04;18.00;99.90
56725;DHT22;42608;52.776;6.968;2022-08-21T00:21:32;18.00;99.90
56725;DHT22;42608;52.776;6.968;2022-08-21T00:23:58;18.00;99.90
56725;DHT22;42608;52.776;6.968;2022-08-21T00:26:24;17.90;99.90
56725;DHT22;42608;52.776;6.968;2022-08-21T00:28:50;17.90;99.90
56725;DHT22;42608;52.776;6.968;2022-08-21T00:31:16;17.90;99.90
56725;DHT22;42608;52.776;6.968;2022-08-21T00:33:44;17.90;99.90
56725;DHT22;42608;52.776;6.968;2022-08-21T00:36:10;17.90;99.90
56725;DHT22;42608;52.776;6.968;2022-08-21T00:38:36;17.80;99.90
56725;DHT22;42608;52.776;6.968;2022-08-21T00:41:04;17.80;99.90
56725;DHT22;42608;52.776;6.968;2022-08-21T00:43:32;17.80;99.90
56725;DHT22;42608;52.776;6.968;2022-08-21T00:45:59;17.80;99.90
56725;DHT22;42608;52.776;6.968;2022-08-21T00:48:26;17.70;99.90
56725;DHT22;42608;52.776;6.968;2022-08-21T00:53:48;17.60;99.90
56725;DHT22;42608;52.776;6.968;2022-08-21T00:56:15;17.60;99.90
56725;DHT22;42608;52.776;6.968;2022-08-21T00:58:41;17.50;99.90
56725;DHT22;42608;52.776;6.968;2022-08-21T01:01:08;17.50;99.90
56725;DHT22;42608;52.776;6.968;2022-08-21T01:03:35;17.60;99.90
56725;DHT22;42608;52.776;6.968;2022-08-21T01:06:03;17.60;99.90
56725;DHT22;42608;52.776;6.968;2022-08-21T01:08:30;17.60;99.90
56725;DHT22;42608;52.776;6.968;2022-08-21T01:10:57;17.60;99.90
56725;DHT22;42608;52.776;6.968;2022-08-21T01:13:26;17.60;99.90
56725;DHT22;42608;52.776;6.968;2022-08-21T01:15:55;17.60;99.90
56725;DHT22;42608;52.776;6.968;2022-08-21T01:18:22;17.60;99.90
56725;DHT22;42608;52.776;6.968;2022-08-21T01:21:08;17.60;99.90
56725;DHT22;42608;52.776;6.968;2022-08-21T01:23:36;17.70;99.90
56725;DHT22;42608;52.776;6.968;2022-08-21T01:26:03;17.60;99.90
56725;DHT22;42608;52.776;6.968;2022-08-21T01:28:34;17.70;99.90
56725;DHT22;42608;52.776;6.968;2022-08-21T01:31:03;17.70;99.90
56725;DHT22;42608;52.776;6.968;2022-08-21T01:33:30;17.70;99.90
56725;DHT22;42608;52.776;6.968;2022-08-21T01:35:56;17.70;99.90
56725;DHT22;42608;52.776;6.968;2022-08-21T01:38:22;17.70;99.90
56725;DHT22;42608;52.776;6.968;2022-08-21T01:40:48;17.60;99.90
56725;DHT22;42608;52.776;6.968;2022-08-21T01:43:14;17.60;99.90
56725;DHT22;42608;52.776;6.968;2022-08-21T01:45:39;17.70;99.90
56725;DHT22;42608;52.776;6.968;2022-08-21T01:48:05;17.60;99.90
56725;DHT22;42608;52.776;6.968;2022-08-21T01:50:31;17.50;99.90
56725;DHT22;42608;52.776;6.968;2022-08-21T01:52:57;17.40;99.90
56725;DHT22;42608;52.776;6.968;2022-08-21T01:55:23;17.30;99.90
56725;DHT22;42608;52.776;6.968;2022-08-21T01:57:49;17.20;99.90
56725;DHT22;42608;52.776;6.968;2022-08-21T02:00:19;17.20;99.90
56725;DHT22;42608;52.776;6.968;2022-08-21T02:02:48;17.10;99.90
56725;DHT22;42608;52.776;6.968;2022-08-21T02:05:13;17.10;99.90
56725;DHT22;42608;52.776;6.968;2022-08-21T02:07:49;17.10;99.90
56725;DHT22;42608;52.776;6.968;2022-08-21T02:10:22;17.10;99.90
56725;DHT22;42608;52.776;6.968;2022-08-21T02:12:48;17.10;99.90
56725;DHT22;42608;52.776;6.968;2022-08-21T02:15:15;17.10;99.90
56725;DHT22;42608;52.776;6.968;2022-08-21T02:17:47;17.00;99.90
56725;DHT22;42608;52.776;6.968;2022-08-21T02:20:36;17.00;99.90
56725;DHT22;42608;52.776;6.968;2022-08-21T02:23:03;17.00;99.90
56725;DHT22;42608;52.776;6.968;2022-08-21T02:25:29;17.00;99.90
56725;DHT22;42608;52.776;6.968;2022-08-21T02:27:56;17.00;99.90
56725;DHT22;42608;52.776;6.968;2022-08-21T02:30:29;17.00;99.90
56725;DHT22;42608;52.776;6.968;2022-08-21T02:32:55;17.00;99.90
56725;DHT22;42608;52.776;6.968;2022-08-21T02:35:21;17.00;99.90
56725;DHT22;42608;52.776;6.968;2022-08-21T02:37:53;16.90;99.90
56725;DHT22;42608;52.776;6.968;2022-08-21T02:40:23;16.90;99.90
56725;DHT22;42608;52.776;6.968;2022-08-21T02:42:49;16.80;99.90
56725;DHT22;42608;52.776;6.968;2022-08-21T02:45:16;16.80;99.90
56725;DHT22;42608;52.776;6.968;2022-08-21T02:47:50;16.70;99.90
56725;DHT22;42608;52.776;6.968;2022-08-21T02:50:27;16.70;99.90
56725;DHT22;42608;52.776;6.968;2022-08-21T02:52:53;16.60;99.90
56725;DHT22;42608;52.776;6.968;2022-08-21T02:55:20;16.50;99.90
56725;DHT22;42608;52.776;6.968;2022-08-21T02:57:47;16.40;99.90
56725;DHT22;42608;52.776;6.968;2022-08-21T03:00:14;16.40;99.90
56725;DHT22;42608;52.776;6.968;2022-08-21T03:02:40;16.40;99.90
56725;DHT22;42608;52.776;6.968;2022-08-21T03:05:08;16.40;99.90
56725;DHT22;42608;52.776;6.968;2022-08-21T03:07:36;16.30;99.90
56725;DHT22;42608;52.776;6.968;2022-08-21T03:10:02;16.30;99.90
56725;DHT22;42608;52.776;6.968;2022-08-21T03:12:28;16.30;99.90
56725;DHT22;42608;52.776;6.968;2022-08-21T03:14:54;16.30;99.90
56725;DHT22;42608;52.776;6.968;2022-08-21T03:17:19;16.30;99.90
56725;DHT22;42608;52.776;6.968;2022-08-21T03:19:45;16.30;99.90
56725;DHT22;42608;52.776;6.968;2022-08-21T03:22:10;16.30;99.90
56725;DHT22;42608;52.776;6.968;2022-08-21T03:24:36;16.30;99.90
56725;DHT22;42608;52.776;6.968;2022-08-21T03:27:03;16.30;99.90
56725;DHT22;42608;52.776;6.968;2022-08-21T03:29:29;16.20;99.90
56725;DHT22;42608;52.776;6.968;2022-08-21T03:31:54;16.30;99.90
56725;DHT22;42608;52.776;6.968;2022-08-21T03:34:21;16.30;99.90
56725;DHT22;42608;52.776;6.968;2022-08-21T03:36:47;16.30;99.90
56725;DHT22;42608;52.776;6.968;2022-08-21T03:39:17;16.30;99.90
56725;DHT22;42608;52.776;6.968;2022-08-21T03:41:43;16.30;99.90
56725;DHT22;42608;52.776;6.968;2022-08-21T03:44:08;16.30;99.90
56725;DHT22;42608;52.776;6.968;2022-08-21T03:46:34;16.30;99.90
56725;DHT22;42608;52.776;6.968;2022-08-21T03:49:00;16.30;99.90
56725;DHT22;42608;52.776;6.968;2022-08-21T03:51:26;16.30;99.90
56725;DHT22;42608;52.776;6.968;2022-08-21T03:53:52;16.30;99.90
56725;DHT22;42608;52.776;6.968;2022-08-21T03:56:17;16.30;99.90
56725;DHT22;42608;52.776;6.968;2022-08-21T03:58:43;16.30;99.90
56725;DHT22;42608;52.776;6.968;2022-08-21T04:01:10;16.30;99.90
56725;DHT22;42608;52.776;6.968;2022-08-21T04:03:37;16.30;99.90
56725;DHT22;42608;52.776;6.968;2022-08-21T04:06:03;16.30;99.90
56725;DHT22;42608;52.776;6.968;2022-08-21T04:08:29;16.30;99.90
56725;DHT22;42608;52.776;6.968;2022-08-21T04:10:57;16.30;99.90
56725;DHT22;42608;52.776;6.968;2022-08-21T04:13:23;16.30;99.90
56725;DHT22;42608;52.776;6.968;2022-08-21T04:15:49;16.30;99.90
56725;DHT22;42608;52.776;6.968;2022-08-21T04:18:16;16.30;99.90
56725;DHT22;42608;52.776;6.968;2022-08-21T04:20:43;16.30;99.90
56725;DHT22;42608;52.776;6.968;2022-08-21T04:23:10;16.30;99.90
56725;DHT22;42608;52.776;6.968;2022-08-21T04:25:36;16.30;99.90
56725;DHT22;42608;52.776;6.968;2022-08-21T04:28:02;16.30;99.90
56725;DHT22;42608;52.776;6.968;2022-08-21T04:30:28;16.20;99.90
56725;DHT22;42608;52.776;6.968;2022-08-21T04:32:54;16.20;99.90
56725;DHT22;42608;52.776;6.968;2022-08-21T04:35:22;16.20;99.90
56725;DHT22;42608;52.776;6.968;2022-08-21T04:37:48;16.20;99.90
56725;DHT22;42608;52.776;6.968;2022-08-21T04:40:17;16.20;99.90
56725;DHT22;42608;52.776;6.968;2022-08-21T04:42:46;16.20;99.90
56725;DHT22;42608;52.776;6.968;2022-08-21T04:45:34;16.20;99.90
56725;DHT22;42608;52.776;6.968;2022-08-21T04:48:03;16.20;99.90
56725;DHT22;42608;52.776;6.968;2022-08-21T04:50:47;16.10;99.90
56725;DHT22;42608;52.776;6.968;2022-08-21T04:53:26;16.10;99.90
56725;DHT22;42608;52.776;6.968;2022-08-21T04:55:56;16.10;99.90
56725;DHT22;42608;52.776;6.968;2022-08-21T04:58:24;16.00;99.90
56725;DHT22;42608;52.776;6.968;2022-08-21T05:00:54;16.00;99.90
56725;DHT22;42608;52.776;6.968;2022-08-21T05:03:21;16.10;99.90
56725;DHT22;42608;52.776;6.968;2022-08-21T05:05:48;16.00;99.90
56725;DHT22;42608;52.776;6.968;2022-08-21T05:08:16;16.00;99.90
56725;DHT22;42608;52.776;6.968;2022-08-21T05:10:43;16.00;99.90
56725;DHT22;42608;52.776;6.968;2022-08-21T05:13:11;16.00;99.90
56725;DHT22;42608;52.776;6.968;2022-08-21T05:15:38;16.00;99.90
56725;DHT22;42608;52.776;6.968;2022-08-21T05:18:04;15.90;99.90
56725;DHT22;42608;52.776;6.968;2022-08-21T05:20:30;15.90;99.90
56725;DHT22;42608;52.776;6.968;2022-08-21T05:22:56;15.90;99.90
56725;DHT22;42608;52.776;6.968;2022-08-21T05:25:23;15.90;99.90
56725;DHT22;42608;52.776;6.968;2022-08-21T05:27:48;15.90;99.90
56725;DHT22;42608;52.776;6.968;2022-08-21T05:30:14;15.90;99.90
56725;DHT22;42608;52.776;6.968;2022-08-21T05:32:40;15.90;99.90
56725;DHT22;42608;52.776;6.968;2022-08-21T05:35:06;15.90;99.90
56725;DHT22;42608;52.776;6.968;2022-08-21T05:37:32;15.90;99.90
56725;DHT22;42608;52.776;6.968;2022-08-21T05:39:59;15.90;99.90
56725;DHT22;42608;52.776;6.968;2022-08-21T05:42:25;15.90;99.90
56725;DHT22;42608;52.776;6.968;2022-08-21T05:44:50;15.90;99.90
56725;DHT22;42608;52.776;6.968;2022-08-21T05:47:16;15.90;99.90
56725;DHT22;42608;52.776;6.968;2022-08-21T05:49:42;15.90;99.90
56725;DHT22;42608;52.776;6.968;2022-08-21T05:52:07;15.90;99.90
56725;DHT22;42608;52.776;6.968;2022-08-21T05:54:34;15.90;99.90
56725;DHT22;42608;52.776;6.968;2022-08-21T05:57:01;15.90;99.90
56725;DHT22;42608;52.776;6.968;2022-08-21T05:59:26;15.90;99.90
56725;DHT22;42608;52.776;6.968;2022-08-21T06:01:53;16.00;99.90
56725;DHT22;42608;52.776;6.968;2022-08-21T06:04:19;16.00;99.90
56725;DHT22;42608;52.776;6.968;2022-08-21T06:06:45;16.00;99.90
56725;DHT22;42608;52.776;6.968;2022-08-21T06:09:11;16.00;99.90
56725;DHT22;42608;52.776;6.968;2022-08-21T06:11:37;16.00;99.90
56725;DHT22;42608;52.776;6.968;2022-08-21T06:14:02;16.00;99.90
56725;DHT22;42608;52.776;6.968;2022-08-21T06:16:29;16.00;99.90
56725;DHT22;42608;52.776;6.968;2022-08-21T06:18:55;16.10;99.90
56725;DHT22;42608;52.776;6.968;2022-08-21T06:21:21;16.10;99.90
56725;DHT22;42608;52.776;6.968;2022-08-21T06:23:46;16.10;99.90
56725;DHT22;42608;52.776;6.968;2022-08-21T06:26:14;16.10;99.90
56725;DHT22;42608;52.776;6.968;2022-08-21T06:28:40;16.20;99.90
56725;DHT22;42608;52.776;6.968;2022-08-21T06:31:15;16.20;99.90
56725;DHT22;42608;52.776;6.968;2022-08-21T06:33:41;16.20;99.90
56725;DHT22;42608;52.776;6.968;2022-08-21T06:36:07;16.30;99.90
56725;DHT22;42608;52.776;6.968;2022-08-21T06:38:33;16.30;99.90
56725;DHT22;42608;52.776;6.968;2022-08-21T06:40:59;16.40;99.90
56725;DHT22;42608;52.776;6.968;2022-08-21T06:43:25;16.40;99.90
56725;DHT22;42608;52.776;6.968;2022-08-21T06:45:51;16.50;99.90
56725;DHT22;42608;52.776;6.968;2022-08-21T06:48:17;16.50;99.90
56725;DHT22;42608;52.776;6.968;2022-08-21T06:50:42;16.60;99.90
56725;DHT22;42608;52.776;6.968;2022-08-21T06:53:14;16.60;99.90
56725;DHT22;42608;52.776;6.968;2022-08-21T06:55:40;16.70;99.90
56725;DHT22;42608;52.776;6.968;2022-08-21T06:58:08;16.70;99.90
56725;DHT22;42608;52.776;6.968;2022-08-21T07:00:35;16.80;99.90
56725;DHT22;42608;52.776;6.968;2022-08-21T07:03:01;16.90;99.90
56725;DHT22;42608;52.776;6.968;2022-08-21T07:05:30;16.90;99.90
56725;DHT22;42608;52.776;6.968;2022-08-21T07:07:57;17.00;99.90
56725;DHT22;42608;52.776;6.968;2022-08-21T07:10:27;17.10;99.90
56725;DHT22;42608;52.776;6.968;2022-08-21T07:12:52;17.10;99.90
56725;DHT22;42608;52.776;6.968;2022-08-21T07:15:20;17.20;99.90
56725;DHT22;42608;52.776;6.968;2022-08-21T07:17:45;17.30;99.90
56725;DHT22;42608;52.776;6.968;2022-08-21T07:20:11;17.40;99.90
56725;DHT22;42608;52.776;6.968;2022-08-21T07:22:36;17.50;99.90
56725;DHT22;42608;52.776;6.968;2022-08-21T07:25:03;17.50;99.90
56725;DHT22;42608;52.776;6.968;2022-08-21T07:27:29;17.70;99.90
56725;DHT22;42608;52.776;6.968;2022-08-21T07:29:56;17.70;99.90
56725;DHT22;42608;52.776;6.968;2022-08-21T07:32:21;17.80;99.90
56725;DHT22;42608;52.776;6.968;2022-08-21T07:34:47;17.90;99.90
56725;DHT22;42608;52.776;6.968;2022-08-21T07:37:12;17.90;99.90
56725;DHT22;42608;52.776;6.968;2022-08-21T07:39:38;17.90;99.90
56725;DHT22;42608;52.776;6.968;2022-08-21T07:42:03;18.00;99.90
56725;DHT22;42608;52.776;6.968;2022-08-21T07:44:29;18.10;99.90
56725;DHT22;42608;52.776;6.968;2022-08-21T07:46:55;18.10;99.90
56725;DHT22;42608;52.776;6.968;2022-08-21T07:49:20;18.20;99.90
56725;DHT22;42608;52.776;6.968;2022-08-21T07:51:46;18.30;99.90
56725;DHT22;42608;52.776;6.968;2022-08-21T07:54:11;18.40;99.90
56725;DHT22;42608;52.776;6.968;2022-08-21T07:56:37;18.50;99.90
56725;DHT22;42608;52.776;6.968;2022-08-21T07:59:02;18.50;99.90
56725;DHT22;42608;52.776;6.968;2022-08-21T08:01:28;18.60;99.90
56725;DHT22;42608;52.776;6.968;2022-08-21T08:03:54;18.70;99.90
56725;DHT22;42608;52.776;6.968;2022-08-21T08:06:20;18.70;99.90
56725;DHT22;42608;52.776;6.968;2022-08-21T08:08:46;18.80;99.90
56725;DHT22;42608;52.776;6.968;2022-08-21T08:11:12;18.90;99.90
56725;DHT22;42608;52.776;6.968;2022-08-21T08:13:41;18.90;99.90
56725;DHT22;42608;52.776;6.968;2022-08-21T08:16:07;19.00;99.90
56725;DHT22;42608;52.776;6.968;2022-08-21T08:18:32;19.00;99.90
56725;DHT22;42608;52.776;6.968;2022-08-21T08:20:58;19.10;99.90
56725;DHT22;42608;52.776;6.968;2022-08-21T08:23:23;19.10;99.90
56725;DHT22;42608;52.776;6.968;2022-08-21T08:25:49;19.20;99.90
56725;DHT22;42608;52.776;6.968;2022-08-21T08:28:15;19.20;99.90
56725;DHT22;42608;52.776;6.968;2022-08-21T08:30:40;19.20;99.90
56725;DHT22;42608;52.776;6.968;2022-08-21T08:33:08;19.30;99.90
56725;DHT22;42608;52.776;6.968;2022-08-21T08:35:33;19.30;99.90
56725;DHT22;42608;52.776;6.968;2022-08-21T08:37:59;19.40;99.90
56725;DHT22;42608;52.776;6.968;2022-08-21T08:40:28;19.40;99.90
56725;DHT22;42608;52.776;6.968;2022-08-21T08:42:56;19.50;99.90
56725;DHT22;42608;52.776;6.968;2022-08-21T08:45:21;19.60;99.90
56725;DHT22;42608;52.776;6.968;2022-08-21T08:47:57;19.60;99.90
56725;DHT22;42608;52.776;6.968;2022-08-21T08:50:46;19.70;99.90
56725;DHT22;42608;52.776;6.968;2022-08-21T08:53:14;19.70;99.90
56725;DHT22;42608;52.776;6.968;2022-08-21T08:55:42;19.70;99.90
56725;DHT22;42608;52.776;6.968;2022-08-21T08:58:10;19.80;99.90
56725;DHT22;42608;52.776;6.968;2022-08-21T09:00:37;19.80;99.90
56725;DHT22;42608;52.776;6.968;2022-08-21T09:03:03;19.90;99.90
56725;DHT22;42608;52.776;6.968;2022-08-21T09:05:30;19.90;99.90
56725;DHT22;42608;52.776;6.968;2022-08-21T09:10:33;20.00;99.90
56725;DHT22;42608;52.776;6.968;2022-08-21T09:18:28;20.10;99.90
56725;DHT22;42608;52.776;6.968;2022-08-21T09:21:03;20.10;99.90
56725;DHT22;42608;52.776;6.968;2022-08-21T09:26:21;20.20;99.90
56725;DHT22;42608;52.776;6.968;2022-08-21T09:28:51;20.30;99.90
56725;DHT22;42608;52.776;6.968;2022-08-21T09:31:21;20.40;99.90
56725;DHT22;42608;52.776;6.968;2022-08-21T09:33:47;20.50;99.90
56725;DHT22;42608;52.776;6.968;2022-08-21T09:36:13;20.50;99.90
56725;DHT22;42608;52.776;6.968;2022-08-21T09:38:51;20.60;99.90
56725;DHT22;42608;52.776;6.968;2022-08-21T09:41:17;20.70;99.90
56725;DHT22;42608;52.776;6.968;2022-08-21T09:43:53;20.70;99.90
56725;DHT22;42608;52.776;6.968;2022-08-21T09:46:23;20.70;99.90
56725;DHT22;42608;52.776;6.968;2022-08-21T09:48:50;20.70;99.90
56725;DHT22;42608;52.776;6.968;2022-08-21T09:51:18;20.70;99.90
56725;DHT22;42608;52.776;6.968;2022-08-21T09:53:45;20.80;99.90
56725;DHT22;42608;52.776;6.968;2022-08-21T09:56:19;20.90;99.90
56725;DHT22;42608;52.776;6.968;2022-08-21T09:59:12;21.00;99.90
56725;DHT22;42608;52.776;6.968;2022-08-21T10:01:42;21.10;99.90
56725;DHT22;42608;52.776;6.968;2022-08-21T10:04:09;21.10;99.90
56725;DHT22;42608;52.776;6.968;2022-08-21T10:06:35;21.10;99.90
56725;DHT22;42608;52.776;6.968;2022-08-21T10:09:08;21.20;99.90
56725;DHT22;42608;52.776;6.968;2022-08-21T10:11:34;21.20;99.90
56725;DHT22;42608;52.776;6.968;2022-08-21T10:24:48;21.50;99.90
56725;DHT22;42608;52.776;6.968;2022-08-21T10:27:19;21.60;99.90
56725;DHT22;42608;52.776;6.968;2022-08-21T10:32:31;21.70;99.90
56725;DHT22;42608;52.776;6.968;2022-08-21T10:38:18;21.90;99.30
56725;DHT22;42608;52.776;6.968;2022-08-21T10:45:38;21.90;98.30
56725;DHT22;42608;52.776;6.968;2022-08-21T10:48:05;21.90;98.70
56725;DHT22;42608;52.776;6.968;2022-08-21T10:50:38;22.00;97.30
56725;DHT22;42608;52.776;6.968;2022-08-21T10:53:13;21.90;95.70
56725;DHT22;42608;52.776;6.968;2022-08-21T10:55:43;21.90;94.30
56725;DHT22;42608;52.776;6.968;2022-08-21T10:58:11;21.90;95.20
56725;DHT22;42608;52.776;6.968;2022-08-21T11:00:43;21.90;94.70
56725;DHT22;42608;52.776;6.968;2022-08-21T11:03:17;22.00;95.00
56725;DHT22;42608;52.776;6.968;2022-08-21T11:08:17;22.00;95.20
56725;DHT22;42608;52.776;6.968;2022-08-21T11:10:45;22.10;95.20
56725;DHT22;42608;52.776;6.968;2022-08-21T11:13:14;22.20;94.20
56725;DHT22;42608;52.776;6.968;2022-08-21T11:20:38;22.30;95.30
56725;DHT22;42608;52.776;6.968;2022-08-21T11:25:40;22.40;92.40
56725;DHT22;42608;52.776;6.968;2022-08-21T11:28:10;22.50;93.70
56725;DHT22;42608;52.776;6.968;2022-08-21T11:33:30;22.60;93.10
56725;DHT22;42608;52.776;6.968;2022-08-21T11:35:58;22.60;91.60
56725;DHT22;42608;52.776;6.968;2022-08-21T11:38:39;22.60;91.40
56725;DHT22;42608;52.776;6.968;2022-08-21T11:51:47;22.80;93.10
56725;DHT22;42608;52.776;6.968;2022-08-21T11:54:23;22.90;93.10
56725;DHT22;42608;52.776;6.968;2022-08-21T11:57:01;23.00;91.80
56725;DHT22;42608;52.776;6.968;2022-08-21T11:59:34;23.00;91.00
56725;DHT22;42608;52.776;6.968;2022-08-21T12:02:01;23.00;91.60
56725;DHT22;42608;52.776;6.968;2022-08-21T12:04:30;23.00;92.60
56725;DHT22;42608;52.776;6.968;2022-08-21T12:06:56;23.10;91.50
56725;DHT22;42608;52.776;6.968;2022-08-21T12:14:41;23.30;88.30
56725;DHT22;42608;52.776;6.968;2022-08-21T12:17:07;23.30;88.90
56725;DHT22;42608;52.776;6.968;2022-08-21T12:19:33;23.40;87.60
56725;DHT22;42608;52.776;6.968;2022-08-21T12:26:58;23.60;85.90
56725;DHT22;42608;52.776;6.968;2022-08-21T12:34:46;23.90;87.80
56725;DHT22;42608;52.776;6.968;2022-08-21T12:39:57;24.00;84.60
56725;DHT22;42608;52.776;6.968;2022-08-21T12:42:37;24.10;85.70
56725;DHT22;42608;52.776;6.968;2022-08-21T12:45:06;24.20;85.00
56725;DHT22;42608;52.776;6.968;2022-08-21T12:47:41;24.20;85.00
56725;DHT22;42608;52.776;6.968;2022-08-21T12:50:10;24.30;85.40
56725;DHT22;42608;52.776;6.968;2022-08-21T12:52:40;24.40;85.40
56725;DHT22;42608;52.776;6.968;2022-08-21T12:55:07;24.60;83.60
56725;DHT22;42608;52.776;6.968;2022-08-21T12:57:36;24.70;81.80
56725;DHT22;42608;52.776;6.968;2022-08-21T13:00:04;24.70;80.90
56725;DHT22;42608;52.776;6.968;2022-08-21T13:02:33;24.80;79.30
56725;DHT22;42608;52.776;6.968;2022-08-21T13:05:04;24.70;78.00
56725;DHT22;42608;52.776;6.968;2022-08-21T13:07:31;24.70;78.70
56725;DHT22;42608;52.776;6.968;2022-08-21T13:10:03;24.60;78.60
56725;DHT22;42608;52.776;6.968;2022-08-21T13:12:29;24.70;78.30
56725;DHT22;42608;52.776;6.968;2022-08-21T13:14:57;24.80;78.20
56725;DHT22;42608;52.776;6.968;2022-08-21T13:17:23;24.80;78.00
56725;DHT22;42608;52.776;6.968;2022-08-21T13:19:56;24.90;77.10
56725;DHT22;42608;52.776;6.968;2022-08-21T13:22:23;24.90;76.20
56725;DHT22;42608;52.776;6.968;2022-08-21T13:24:49;24.90;76.10
56725;DHT22;42608;52.776;6.968;2022-08-21T13:27:25;25.00;76.10
56725;DHT22;42608;52.776;6.968;2022-08-21T13:30:11;25.10;75.70
56725;DHT22;42608;52.776;6.968;2022-08-21T13:32:42;25.30;74.10
56725;DHT22;42608;52.776;6.968;2022-08-21T13:35:12;25.30;72.30
56725;DHT22;42608;52.776;6.968;2022-08-21T13:37:39;25.30;71.90
56725;DHT22;42608;52.776;6.968;2022-08-21T13:40:07;25.10;72.20
56725;DHT22;42608;52.776;6.968;2022-08-21T13:42:32;25.00;72.70
56725;DHT22;42608;52.776;6.968;2022-08-21T13:44:58;24.90;72.90
56725;DHT22;42608;52.776;6.968;2022-08-21T13:47:24;25.00;73.70
56725;DHT22;42608;52.776;6.968;2022-08-21T13:49:51;25.10;74.70
56725;DHT22;42608;52.776;6.968;2022-08-21T13:52:20;25.20;74.30
56725;DHT22;42608;52.776;6.968;2022-08-21T13:54:52;25.30;73.20
56725;DHT22;42608;52.776;6.968;2022-08-21T13:57:18;25.30;71.90
56725;DHT22;42608;52.776;6.968;2022-08-21T13:59:44;25.30;71.80
56725;DHT22;42608;52.776;6.968;2022-08-21T14:02:12;25.40;72.50
56725;DHT22;42608;52.776;6.968;2022-08-21T14:04:43;25.50;72.40
56725;DHT22;42608;52.776;6.968;2022-08-21T14:07:14;25.70;72.00
56725;DHT22;42608;52.776;6.968;2022-08-21T14:09:42;25.70;71.20
56725;DHT22;42608;52.776;6.968;2022-08-21T14:12:19;25.70;71.00
56725;DHT22;42608;52.776;6.968;2022-08-21T14:14:49;25.80;71.30
56725;DHT22;42608;52.776;6.968;2022-08-21T14:17:25;25.70;71.20
56725;DHT22;42608;52.776;6.968;2022-08-21T14:19:52;25.70;70.60
56725;DHT22;42608;52.776;6.968;2022-08-21T14:25:09;25.60;71.40
56725;DHT22;42608;52.776;6.968;2022-08-21T14:27:39;25.60;70.80
56725;DHT22;42608;52.776;6.968;2022-08-21T14:30:11;25.50;70.40
56725;DHT22;42608;52.776;6.968;2022-08-21T14:32:37;25.40;70.10
56725;DHT22;42608;52.776;6.968;2022-08-21T14:35:03;25.30;70.00
56725;DHT22;42608;52.776;6.968;2022-08-21T14:37:29;25.30;70.50
56725;DHT22;42608;52.776;6.968;2022-08-21T14:39:54;25.40;71.70
56725;DHT22;42608;52.776;6.968;2022-08-21T14:42:20;25.40;71.90
56725;DHT22;42608;52.776;6.968;2022-08-21T14:44:46;25.50;72.50
56725;DHT22;42608;52.776;6.968;2022-08-21T14:47:11;25.50;72.50
56725;DHT22;42608;52.776;6.968;2022-08-21T14:49:37;25.40;73.00
56725;DHT22;42608;52.776;6.968;2022-08-21T14:52:03;25.40;73.10
56725;DHT22;42608;52.776;6.968;2022-08-21T14:54:29;25.20;72.80
56725;DHT22;42608;52.776;6.968;2022-08-21T14:56:56;25.10;73.30
56725;DHT22;42608;52.776;6.968;2022-08-21T14:59:21;24.90;73.80
56725;DHT22;42608;52.776;6.968;2022-08-21T15:01:48;24.90;74.30
56725;DHT22;42608;52.776;6.968;2022-08-21T15:04:14;24.80;75.30
56725;DHT22;42608;52.776;6.968;2022-08-21T15:06:40;24.90;75.00
56725;DHT22;42608;52.776;6.968;2022-08-21T15:09:06;24.80;75.00
56725;DHT22;42608;52.776;6.968;2022-08-21T15:11:32;24.80;74.60
56725;DHT22;42608;52.776;6.968;2022-08-21T15:13:58;24.70;74.30
56725;DHT22;42608;52.776;6.968;2022-08-21T15:16:26;24.60;73.90
56725;DHT22;42608;52.776;6.968;2022-08-21T15:18:52;24.60;73.90
56725;DHT22;42608;52.776;6.968;2022-08-21T15:21:17;24.60;74.20
56725;DHT22;42608;52.776;6.968;2022-08-21T15:23:43;24.70;74.00
56725;DHT22;42608;52.776;6.968;2022-08-21T15:26:08;24.80;73.50
56725;DHT22;42608;52.776;6.968;2022-08-21T15:28:34;24.80;73.80
56725;DHT22;42608;52.776;6.968;2022-08-21T15:31:00;24.90;76.20
56725;DHT22;42608;52.776;6.968;2022-08-21T15:33:26;24.80;77.50
56725;DHT22;42608;52.776;6.968;2022-08-21T15:35:51;24.70;78.60
56725;DHT22;42608;52.776;6.968;2022-08-21T15:38:17;24.60;79.50
56725;DHT22;42608;52.776;6.968;2022-08-21T15:40:43;24.50;81.00
56725;DHT22;42608;52.776;6.968;2022-08-21T15:43:11;24.40;81.80
56725;DHT22;42608;52.776;6.968;2022-08-21T15:45:38;24.20;83.60
56725;DHT22;42608;52.776;6.968;2022-08-21T15:48:04;24.10;84.00
56725;DHT22;42608;52.776;6.968;2022-08-21T15:50:29;24.00;85.50
56725;DHT22;42608;52.776;6.968;2022-08-21T15:52:57;23.90;86.50
56725;DHT22;42608;52.776;6.968;2022-08-21T15:55:22;23.90;87.60
56725;DHT22;42608;52.776;6.968;2022-08-21T15:57:49;23.90;88.10
56725;DHT22;42608;52.776;6.968;2022-08-21T16:00:18;23.90;89.10
56725;DHT22;42608;52.776;6.968;2022-08-21T16:02:46;23.90;88.60
56725;DHT22;42608;52.776;6.968;2022-08-21T16:05:13;23.90;87.40
56725;DHT22;42608;52.776;6.968;2022-08-21T16:07:41;23.90;86.40
56725;DHT22;42608;52.776;6.968;2022-08-21T16:10:07;23.90;85.60
56725;DHT22;42608;52.776;6.968;2022-08-21T16:12:34;23.90;86.70
56725;DHT22;42608;52.776;6.968;2022-08-21T16:15:03;23.90;86.30
56725;DHT22;42608;52.776;6.968;2022-08-21T16:17:31;24.00;87.50
56725;DHT22;42608;52.776;6.968;2022-08-21T16:19:57;24.10;88.80
56725;DHT22;42608;52.776;6.968;2022-08-21T16:22:23;24.20;86.10
56725;DHT22;42608;52.776;6.968;2022-08-21T16:24:48;24.20;85.60
56725;DHT22;42608;52.776;6.968;2022-08-21T16:27:14;24.30;85.50
56725;DHT22;42608;52.776;6.968;2022-08-21T16:29:41;24.30;87.10
56725;DHT22;42608;52.776;6.968;2022-08-21T16:32:07;24.20;85.70
56725;DHT22;42608;52.776;6.968;2022-08-21T16:34:33;24.10;84.40
56725;DHT22;42608;52.776;6.968;2022-08-21T16:36:59;24.10;84.80
56725;DHT22;42608;52.776;6.968;2022-08-21T16:39:25;24.00;83.60
56725;DHT22;42608;52.776;6.968;2022-08-21T16:41:50;24.00;84.50
56725;DHT22;42608;52.776;6.968;2022-08-21T16:44:17;23.80;84.80
56725;DHT22;42608;52.776;6.968;2022-08-21T16:46:43;23.70;84.90
56725;DHT22;42608;52.776;6.968;2022-08-21T16:49:09;23.70;85.70
56725;DHT22;42608;52.776;6.968;2022-08-21T16:51:35;23.60;86.40
56725;DHT22;42608;52.776;6.968;2022-08-21T16:54:01;23.50;86.90